createdAt,value
2018-12-12T00:00:55.150Z,99.62
2018-12-12T00:04:08.507Z,99.23
2018-12-12T00:07:23.745Z,99.33
2018-12-12T00:10:30.807Z,99.81
2018-12-12T00:13:38.300Z,99.61
2018-12-12T00:16:51.312Z,99.71
2018-12-12T00:19:59.971Z,100.00
2018-12-12T00:23:07.154Z,100.00
2018-12-12T00:26:15.737Z,99.50
2018-12-12T00:29:24.496Z,99.53
2018-12-12T00:32:33.672Z,99.76
2018-12-12T00:35:43.015Z,99.68
2018-12-12T00:38:50.380Z,99.26
2018-12-12T00:41:58.441Z,99.14
2018-12-12T00:45:07.608Z,99.17
2018-12-12T00:48:17.649Z,99.40
2018-12-12T00:51:24.838Z,99.22
2018-12-12T00:54:33.417Z,99.70
2018-12-12T00:57:42.661Z,99.87
2018-12-12T01:00:50.072Z,99.74
2018-12-12T01:03:58.000Z,99.56
2018-12-12T01:07:05.637Z,99.94
2018-12-12T01:10:13.280Z,99.08
2018-12-12T01:13:21.382Z,99.90
2018-12-12T01:16:28.393Z,98.80
2018-12-12T01:19:35.744Z,99.38
2018-12-12T01:22:44.092Z,99.65
2018-12-12T01:25:52.820Z,99.72
2018-12-12T01:29:00.381Z,99.66
2018-12-12T01:32:09.041Z,100.00
2018-12-12T01:35:17.499Z,100.00
2018-12-12T01:38:24.889Z,99.85
2018-12-12T01:41:32.204Z,99.22
2018-12-12T01:44:39.250Z,99.49
2018-12-12T01:47:47.112Z,100.00
2018-12-12T01:50:55.107Z,99.64
2018-12-12T01:54:02.864Z,99.74
2018-12-12T01:57:10.380Z,100.00
2018-12-12T02:00:18.155Z,99.93
2018-12-12T02:03:25.424Z,99.34
2018-12-12T02:06:32.948Z,99.76
2018-12-12T02:09:40.577Z,99.18
2018-12-12T02:13:02.966Z,99.39
2018-12-12T02:16:11.746Z,99.13
2018-12-12T02:19:19.498Z,97.94
2018-12-12T02:22:26.808Z,98.27
2018-12-12T02:25:35.318Z,98.80
2018-12-12T02:28:43.764Z,99.01
2018-12-12T02:31:50.893Z,99.03
2018-12-12T02:34:58.415Z,98.67
2018-12-12T02:38:06.062Z,98.98
2018-12-12T02:41:13.899Z,99.09
2018-12-12T02:44:21.928Z,98.60
2018-12-12T02:47:29.772Z,98.71
2018-12-12T02:50:37.293Z,98.92
2018-12-12T02:53:44.539Z,99.08
2018-12-12T02:56:52.503Z,99.25
2018-12-12T03:00:00.510Z,98.65
2018-12-12T03:03:08.279Z,98.62
2018-12-12T03:06:16.194Z,98.42
2018-12-12T03:09:25.603Z,98.89
2018-12-12T03:12:33.224Z,97.95
2018-12-12T03:15:41.641Z,98.08
2018-12-12T03:18:49.550Z,97.73
2018-12-12T03:21:58.301Z,97.84
2018-12-12T03:25:06.399Z,97.88
2018-12-12T03:28:14.002Z,98.08
2018-12-12T03:31:21.556Z,98.72
2018-12-12T03:34:29.885Z,98.37
2018-12-12T03:37:37.904Z,97.98
2018-12-12T03:40:46.417Z,98.01
2018-12-12T03:43:54.286Z,97.93
2018-12-12T03:50:21.668Z,98.11
2018-12-12T03:53:29.592Z,96.69
2018-12-12T03:56:37.038Z,97.56
2018-12-12T03:59:44.478Z,96.82
2018-12-12T04:02:52.277Z,97.08
2018-12-12T04:05:59.348Z,97.13
2018-12-12T04:09:09.942Z,96.46
2018-12-12T04:12:17.363Z,96.57
2018-12-12T04:15:27.025Z,96.68
2018-12-12T04:18:45.429Z,96.96
2018-12-12T04:21:53.034Z,97.36
2018-12-12T04:25:10.837Z,97.04
2018-12-12T04:28:18.389Z,97.53
2018-12-12T04:31:25.742Z,97.41
2018-12-12T04:34:32.590Z,97.28
2018-12-12T04:37:40.539Z,97.01
2018-12-12T04:40:48.350Z,97.71
2018-12-12T04:43:54.755Z,98.18
2018-12-12T04:47:02.702Z,98.08
2018-12-12T04:50:10.256Z,98.11
2018-12-12T04:53:17.076Z,97.81
2018-12-12T04:56:24.722Z,97.18
2018-12-12T04:59:36.931Z,97.09
2018-12-12T05:02:55.680Z,97.87
2018-12-12T05:06:03.759Z,97.10
2018-12-12T05:09:10.331Z,98.20
2018-12-12T05:12:17.015Z,97.35
2018-12-12T05:15:24.005Z,97.71
2018-12-12T05:18:31.691Z,98.01
2018-12-12T05:21:40.359Z,97.84
2018-12-12T05:24:49.622Z,98.01
2018-12-12T05:27:57.302Z,97.80
2018-12-12T05:31:05.238Z,98.08
2018-12-12T05:34:13.142Z,98.66
2018-12-12T05:37:21.082Z,98.67
2018-12-12T05:40:29.579Z,98.68
2018-12-12T05:43:37.170Z,98.84
2018-12-12T05:46:47.549Z,99.13
2018-12-12T05:49:57.806Z,99.12
2018-12-12T05:53:04.825Z,99.07
2018-12-12T05:56:14.222Z,99.00
2018-12-12T05:59:21.169Z,99.15
2018-12-12T06:02:29.189Z,99.00
2018-12-12T06:05:36.029Z,98.45
2018-12-12T06:08:43.665Z,99.15
2018-12-12T06:11:52.482Z,98.72
2018-12-12T06:14:59.092Z,99.14
2018-12-12T06:18:07.124Z,99.43
2018-12-12T06:21:14.670Z,98.66
2018-12-12T06:24:23.170Z,98.47
2018-12-12T06:27:31.936Z,98.82
2018-12-12T06:30:40.420Z,98.88
2018-12-12T06:33:48.139Z,99.19
2018-12-12T06:36:54.350Z,98.30
2018-12-12T06:40:01.308Z,99.31
2018-12-12T06:43:09.346Z,98.95
2018-12-12T06:46:17.152Z,99.15
2018-12-12T06:49:24.708Z,98.71
2018-12-12T06:52:31.374Z,99.14
2018-12-12T06:55:38.087Z,99.41
2018-12-12T06:58:45.039Z,99.13
2018-12-12T07:01:51.738Z,99.47
2018-12-12T07:04:59.034Z,99.73
2018-12-12T07:08:05.066Z,99.24
2018-12-12T07:11:10.942Z,99.74
2018-12-12T07:14:16.942Z,99.93
2018-12-12T07:17:22.614Z,99.56
2018-12-12T07:20:28.569Z,99.79
2018-12-12T07:23:35.600Z,99.77
2018-12-12T07:26:41.524Z,100.00
2018-12-12T07:29:47.465Z,100.00
2018-12-12T07:32:53.876Z,99.93
2018-12-12T07:35:59.865Z,99.51
2018-12-12T07:39:08.748Z,99.81
2018-12-12T07:42:14.669Z,100.00
2018-12-12T07:45:39.795Z,100.00
2018-12-12T07:48:52.517Z,99.73
2018-12-12T07:52:17.881Z,100.00
2018-12-12T07:55:23.818Z,100.00
2018-12-12T07:58:29.775Z,100.00
2018-12-12T08:01:36.188Z,99.80
2018-12-12T08:04:42.235Z,100.00
2018-12-12T08:07:48.393Z,100.00
2018-12-12T08:10:54.887Z,100.00
2018-12-12T08:14:00.567Z,100.00
2018-12-12T08:17:06.505Z,100.00
2018-12-12T08:20:12.607Z,100.00
2018-12-12T08:23:19.164Z,100.00
2018-12-12T08:26:24.871Z,100.00
2018-12-12T08:29:30.816Z,99.73
2018-12-12T08:32:38.274Z,99.88
2018-12-12T08:35:44.204Z,100.00
2018-12-12T08:38:50.185Z,99.75
2018-12-12T08:41:58.263Z,99.90
2018-12-12T08:45:04.869Z,99.96
2018-12-12T08:48:11.561Z,99.92
2018-12-12T08:51:17.478Z,99.57
2018-12-12T08:54:23.227Z,100.00
2018-12-12T08:57:29.371Z,99.66
2018-12-12T09:00:35.790Z,99.48
2018-12-12T09:03:41.420Z,99.66
2018-12-12T09:06:47.147Z,98.99
2018-12-12T09:09:53.592Z,99.47
2018-12-12T09:12:59.562Z,99.13
2018-12-12T09:16:05.957Z,99.07
2018-12-12T09:19:11.754Z,99.20
2018-12-12T09:22:17.230Z,99.67
2018-12-12T09:25:23.120Z,99.30
2018-12-12T09:28:29.545Z,100.00
2018-12-12T09:31:37.691Z,100.00
2018-12-12T09:34:45.316Z,100.00
2018-12-12T09:37:51.302Z,100.00
2018-12-12T09:40:57.400Z,99.78
2018-12-12T09:44:03.367Z,100.00
2018-12-12T09:47:09.391Z,99.92
2018-12-12T09:50:15.766Z,100.00
2018-12-12T09:53:23.128Z,100.00
2018-12-12T09:56:30.701Z,100.00
2018-12-12T09:59:36.647Z,100.00
2018-12-12T10:02:42.730Z,100.00
2018-12-12T10:05:48.494Z,100.00
2018-12-12T10:08:54.495Z,100.00
2018-12-12T10:12:00.225Z,100.00
2018-12-12T10:15:07.402Z,100.00
2018-12-12T10:18:13.384Z,100.00
2018-12-12T10:21:19.309Z,100.00
2018-12-12T10:24:25.798Z,100.00
2018-12-12T10:27:32.538Z,100.00
2018-12-12T10:30:38.633Z,99.84
2018-12-12T10:33:44.665Z,99.94
2018-12-12T10:42:15.061Z,100.00
2018-12-12T10:45:20.987Z,100.00
2018-12-12T10:48:26.960Z,100.00
2018-12-12T10:51:34.322Z,100.00
2018-12-12T10:54:40.652Z,99.83
2018-12-12T10:57:46.348Z,100.00
2018-12-12T11:00:57.572Z,99.71
2018-12-12T11:04:04.249Z,99.49
2018-12-12T11:07:09.981Z,99.64
2018-12-12T11:10:16.293Z,99.24
2018-12-12T11:13:22.298Z,99.19
2018-12-12T11:16:28.753Z,99.72
2018-12-12T11:19:34.665Z,99.47
2018-12-12T11:22:40.632Z,99.35
2018-12-12T11:25:46.679Z,99.85
2018-12-12T11:28:52.687Z,99.50
2018-12-12T11:31:58.356Z,99.50
2018-12-12T11:35:04.826Z,98.68
2018-12-12T11:38:10.703Z,98.78
2018-12-12T11:41:16.672Z,98.75
2018-12-12T11:44:22.895Z,99.28
2018-12-12T11:47:29.131Z,98.92
2018-12-12T11:50:35.129Z,98.63
2018-12-12T11:53:40.796Z,99.16
2018-12-12T11:56:46.793Z,98.42
2018-12-12T11:59:52.502Z,99.23
2018-12-12T12:02:58.195Z,99.75
2018-12-12T12:06:03.942Z,99.37
2018-12-12T12:09:10.997Z,98.61
2018-12-12T12:12:16.736Z,97.66
2018-12-12T12:15:24.171Z,98.41
2018-12-12T12:18:31.136Z,98.77
2018-12-12T12:21:37.045Z,98.55
2018-12-12T12:24:42.697Z,98.63
2018-12-12T12:27:48.308Z,98.56
2018-12-12T12:30:54.279Z,98.56
2018-12-12T12:34:03.242Z,97.99
2018-12-12T12:37:08.549Z,98.57
2018-12-12T12:40:14.924Z,98.65
2018-12-12T12:43:20.644Z,98.72
2018-12-12T12:46:26.866Z,98.42
2018-12-12T12:49:32.815Z,98.75
2018-12-12T12:52:38.784Z,98.09
2018-12-12T12:55:44.738Z,98.58
2018-12-12T12:58:50.388Z,98.23
2018-12-12T13:01:56.359Z,98.42
2018-12-12T13:05:03.318Z,98.06
2018-12-12T13:08:09.024Z,98.38
2018-12-12T13:11:15.029Z,98.80
2018-12-12T13:14:21.304Z,98.14
2018-12-12T13:17:27.339Z,98.06
2018-12-12T13:20:33.403Z,98.41
2018-12-12T13:23:39.114Z,98.16
2018-12-12T13:26:45.575Z,98.96
2018-12-12T13:29:51.604Z,98.78
2018-12-12T13:32:57.297Z,97.65
2018-12-12T13:36:04.602Z,98.48
2018-12-12T13:39:10.545Z,98.23
2018-12-12T13:42:16.652Z,98.08
2018-12-12T13:45:22.935Z,98.32
2018-12-12T13:48:29.398Z,97.70
2018-12-12T13:51:35.063Z,97.96
2018-12-12T13:54:40.993Z,97.54
2018-12-12T13:57:46.687Z,97.78
2018-12-12T14:00:53.699Z,97.82
2018-12-12T14:03:59.604Z,97.46
2018-12-12T14:07:05.713Z,97.90
2018-12-12T14:10:12.171Z,98.15
2018-12-12T14:13:17.895Z,97.40
2018-12-12T14:16:23.860Z,97.46
2018-12-12T14:19:31.120Z,98.13
2018-12-12T14:22:37.089Z,97.41
2018-12-12T14:25:43.018Z,97.80
2018-12-12T14:28:52.972Z,97.82
2018-12-12T14:31:59.089Z,98.08
2018-12-12T14:35:05.976Z,97.94
2018-12-12T14:38:12.098Z,98.40
2018-12-12T14:41:17.824Z,98.17
2018-12-12T14:44:23.709Z,98.41
2018-12-12T14:47:30.285Z,98.12
2018-12-12T14:50:36.227Z,98.56
2018-12-12T14:53:41.919Z,98.72
2018-12-12T14:56:47.868Z,97.94
2018-12-12T14:59:53.821Z,98.14
2018-12-12T15:02:59.463Z,97.81
2018-12-12T15:06:05.861Z,97.89
2018-12-12T15:09:11.796Z,98.02
2018-12-12T15:12:18.910Z,97.88
2018-12-12T15:15:25.545Z,98.48
2018-12-12T15:18:33.623Z,97.83
2018-12-12T15:21:39.864Z,98.24
2018-12-12T15:24:45.793Z,98.48
2018-12-12T15:27:51.901Z,98.43
2018-12-12T15:30:57.499Z,98.66
2018-12-12T15:34:03.122Z,98.64
2018-12-12T15:37:09.055Z,98.17
2018-12-12T15:40:14.943Z,97.71
2018-12-12T15:43:20.684Z,97.72
2018-12-12T15:46:26.273Z,97.97
2018-12-12T15:49:32.275Z,98.32
2018-12-12T15:52:38.167Z,98.02
2018-12-12T15:55:43.771Z,98.28
2018-12-12T15:58:49.743Z,98.53
2018-12-12T16:01:55.370Z,98.60
2018-12-12T16:05:01.311Z,97.69
2018-12-12T16:08:07.895Z,98.13
2018-12-12T16:11:14.771Z,98.00
2018-12-12T16:14:21.291Z,97.17
2018-12-12T16:17:27.368Z,97.41
2018-12-12T16:20:34.842Z,97.72
2018-12-12T16:23:42.464Z,97.27
2018-12-12T16:26:48.789Z,97.28
2018-12-12T16:30:02.961Z,97.20
2018-12-12T16:33:09.260Z,97.18
2018-12-12T16:36:16.134Z,96.93
2018-12-12T16:39:24.507Z,96.00
2018-12-12T16:42:31.893Z,95.80
2018-12-12T16:45:40.451Z,95.71
2018-12-12T16:48:46.791Z,95.60
2018-12-12T16:51:52.944Z,96.09
2018-12-12T16:54:59.845Z,96.43
2018-12-12T16:58:05.899Z,96.39
2018-12-12T17:01:12.399Z,96.46
2018-12-12T17:04:19.188Z,96.67
2018-12-12T17:07:25.708Z,95.75
2018-12-12T17:10:33.715Z,95.99
2018-12-12T17:13:40.140Z,95.66
2018-12-12T17:16:46.868Z,96.52
2018-12-12T17:19:54.081Z,96.46
2018-12-12T17:23:02.387Z,96.74
2018-12-12T17:26:09.175Z,96.60
2018-12-12T17:29:15.258Z,95.29
2018-12-12T17:32:21.423Z,95.23
2018-12-12T17:35:27.027Z,95.47
2018-12-12T17:38:33.237Z,94.82
2018-12-12T17:41:39.571Z,95.81
2018-12-12T17:44:45.454Z,94.96
2018-12-12T17:47:51.207Z,96.16
2018-12-12T17:50:56.758Z,95.74
2018-12-12T17:54:02.641Z,94.40
2018-12-12T17:57:09.287Z,94.79
2018-12-12T18:00:15.973Z,94.25
2018-12-12T18:03:23.588Z,93.69
2018-12-12T18:06:53.621Z,93.86
2018-12-12T18:09:59.545Z,94.28
2018-12-12T18:13:05.709Z,94.34
2018-12-12T18:16:12.970Z,94.38
2018-12-12T18:19:18.583Z,94.30
2018-12-12T18:22:24.465Z,95.36
2018-12-12T18:25:32.060Z,95.11
2018-12-12T18:28:38.037Z,94.88
2018-12-12T18:31:43.918Z,94.93
2018-12-12T18:34:55.259Z,94.66
2018-12-12T18:38:01.129Z,93.15
2018-12-12T18:41:07.105Z,93.16
2018-12-12T18:44:14.689Z,93.91
2018-12-12T18:47:20.908Z,94.24
2018-12-12T18:50:26.518Z,94.45
2018-12-12T18:53:53.940Z,93.44
2018-12-12T18:57:01.620Z,93.89
2018-12-12T19:00:08.082Z,93.03
2018-12-12T19:03:14.948Z,93.67
2018-12-12T19:06:20.870Z,93.45
2018-12-12T19:09:26.752Z,93.60
2018-12-12T19:12:32.639Z,93.90
2018-12-12T19:15:38.499Z,93.38
2018-12-12T19:18:44.359Z,92.84
2018-12-12T19:21:50.007Z,93.02
2018-12-12T19:24:55.878Z,92.34
2018-12-12T19:28:01.458Z,93.95
2018-12-12T19:31:07.060Z,93.93
2018-12-12T19:34:12.939Z,93.89
2018-12-12T19:37:18.997Z,93.35
2018-12-12T19:40:25.056Z,93.94
2018-12-12T19:43:30.967Z,94.16
2018-12-12T19:46:36.851Z,93.80
2018-12-12T19:49:53.869Z,94.71
2018-12-12T19:52:59.714Z,93.66
2018-12-12T19:56:05.373Z,93.69
2018-12-12T19:59:11.147Z,92.97
2018-12-12T20:02:17.273Z,94.48
2018-12-12T20:05:23.195Z,94.02
2018-12-12T20:08:30.737Z,93.87
2018-12-12T20:11:37.080Z,93.50
2018-12-12T20:14:42.692Z,94.08
2018-12-12T20:17:48.391Z,93.35
2018-12-12T20:20:54.029Z,93.42
2018-12-12T20:23:59.984Z,93.63
2018-12-12T20:27:06.570Z,93.10
2018-12-12T20:30:12.527Z,91.58
2018-12-12T20:33:18.509Z,91.12
2018-12-12T20:36:24.623Z,90.58
2018-12-12T20:39:31.034Z,90.22
2018-12-12T20:42:37.029Z,92.02
2018-12-12T20:45:42.925Z,92.32
2018-12-12T20:48:48.901Z,90.85
2018-12-12T20:51:54.774Z,90.80
2018-12-12T20:55:00.687Z,91.79
2018-12-12T20:58:06.352Z,90.66
2018-12-12T21:01:11.966Z,90.31
2018-12-12T21:04:17.885Z,90.99
2018-12-12T21:07:25.081Z,90.75
2018-12-12T21:10:31.421Z,89.96
2018-12-12T21:13:38.104Z,89.98
2018-12-12T21:16:43.760Z,90.08
2018-12-12T21:19:49.373Z,90.39
2018-12-12T21:22:56.981Z,90.49
2018-12-12T21:26:03.379Z,90.82
2018-12-12T21:29:09.260Z,89.44
2018-12-12T21:32:15.214Z,90.76
2018-12-12T21:35:20.806Z,90.99
2018-12-12T21:38:26.698Z,90.22
2018-12-12T21:41:32.275Z,90.23
2018-12-12T21:44:38.186Z,90.26
2018-12-12T21:47:43.899Z,90.27
2018-12-12T21:50:49.839Z,89.69
2018-12-12T21:53:56.016Z,89.55
2018-12-12T21:57:01.904Z,89.51
2018-12-12T22:00:11.760Z,90.17
2018-12-12T22:03:17.382Z,90.67
2018-12-12T22:06:23.796Z,89.54
2018-12-12T22:09:29.656Z,89.56
2018-12-12T22:12:35.678Z,89.22
2018-12-12T22:15:41.547Z,89.66
2018-12-12T22:18:47.572Z,89.68
2018-12-12T22:21:53.453Z,89.89
2018-12-12T22:24:59.336Z,89.44
2018-12-12T22:28:05.201Z,90.19
2018-12-12T22:31:11.101Z,89.41
2018-12-12T22:34:16.708Z,90.11
2018-12-12T22:37:22.280Z,90.20
2018-12-12T22:40:28.608Z,88.71
2018-12-12T22:43:34.472Z,88.85
2018-12-12T22:46:40.612Z,88.30
2018-12-12T22:49:46.223Z,88.55
2018-12-12T22:52:52.067Z,88.34
2018-12-12T22:55:57.667Z,88.34
2018-12-12T22:59:03.694Z,88.78
2018-12-12T23:02:09.265Z,89.57
2018-12-12T23:05:14.872Z,89.44
2018-12-12T23:08:20.802Z,89.32
2018-12-12T23:11:26.421Z,88.79
2018-12-12T23:14:32.049Z,89.53
2018-12-12T23:17:37.929Z,90.34
2018-12-12T23:20:43.959Z,90.26
2018-12-12T23:23:56.558Z,89.74
2018-12-12T23:27:02.194Z,90.24
2018-12-12T23:30:09.611Z,91.80
2018-12-12T23:33:16.291Z,91.44
2018-12-12T23:36:26.887Z,90.56
2018-12-12T23:39:29.876Z,90.06
2018-12-12T23:42:35.733Z,92.08
2018-12-12T23:45:41.373Z,91.72
2018-12-12T23:48:46.986Z,91.67
2018-12-12T23:51:53.336Z,91.65
2018-12-12T23:54:59.335Z,92.31
2018-12-12T23:58:05.220Z,91.15
